Time;durP1;ratioP1;P1;durP2;ratioP2;P2;SDS_P1;SDS_P2;PMS_P1;PMS_P2;Temp;Humidity;BMP_temperature;BMP_pressure;BME280_temperature;BME280_humidity;BME280_pressure;Samples;Min_cycle;Max_cycle;Signal;HPM_P1;HPM_P2
2022/10/24 00:01:18;;;;;;;12.00;10.38;;;;;;;21.42;60.19;101557.19;5102521;27;20043;-90
2022/10/24 00:03:46;;;;;;;12.48;11.18;;;;;;;21.42;60.17;101550.94;5137050;27;20058;-89
2022/10/24 00:06:15;;;;;;;10.82;9.65;;;;;;;21.42;60.18;101550.94;5137399;27;20039;-90
2022/10/24 00:08:43;;;;;;;11.82;10.57;;;;;;;21.41;60.17;101542.00;5137952;27;20058;-89
2022/10/24 00:11:18;;;;;;;12.55;11.02;;;;;;;21.41;60.24;101555.47;5138308;27;20495;-89
2022/10/24 00:13:45;;;;;;;12.05;10.85;;;;;;;21.42;60.21;101559.03;5138204;27;20050;-89
2022/10/24 00:16:13;;;;;;;13.27;11.18;;;;;;;21.41;60.22;101549.22;5137045;27;20069;-89
2022/10/24 00:18:41;;;;;;;13.60;10.65;;;;;;;21.41;60.21;101560.84;5137911;27;20043;-90
2022/10/24 00:21:09;;;;;;;12.00;10.80;;;;;;;21.41;59.99;101550.09;5118254;27;20047;-89
2022/10/24 00:23:37;;;;;;;13.52;10.75;;;;;;;21.40;60.32;101543.00;5137913;27;20050;-89
2022/10/24 00:26:05;;;;;;;13.65;11.07;;;;;;;21.41;60.16;101546.53;5137346;27;20466;-90
2022/10/24 00:28:34;;;;;;;12.20;10.68;;;;;;;21.42;60.20;101540.16;5117904;27;20058;-89
2022/10/24 00:31:04;;;;;;;12.30;11.00;;;;;;;21.42;60.20;101540.16;5117412;27;20050;-89
2022/10/24 00:33:32;;;;;;;12.13;10.13;;;;;;;21.41;60.20;101539.31;5118391;27;20051;-89
2022/10/24 00:35:59;;;;;;;11.77;10.55;;;;;;;21.41;60.19;101536.63;5118102;28;20054;-88
2022/10/24 00:38:26;;;;;;;10.85;9.77;;;;;;;21.41;60.16;101536.63;5137576;27;20039;-89
2022/10/24 00:40:53;;;;;;;11.95;10.68;;;;;;;21.42;60.15;101546.41;5119364;28;20047;-89
2022/10/24 00:43:24;;;;;;;13.93;11.32;;;;;;;21.41;60.15;101538.47;5118126;28;20050;-89
2022/10/24 00:45:55;;;;;;;11.55;10.40;;;;;;;21.41;60.15;101531.22;5118793;28;20395;-89
2022/10/24 00:48:52;;;;;;;11.85;10.18;;;;;;;21.41;60.23;101517.75;5137919;28;20410;-89
2022/10/24 00:51:26;;;;;;;11.85;10.32;;;;;;;21.42;60.18;101524.00;5137136;28;20050;-89
2022/10/24 00:54:01;;;;;;;11.18;10.05;;;;;;;21.42;60.25;101524.00;5117962;28;20055;-89
2022/10/24 00:56:33;;;;;;;11.68;10.43;;;;;;;21.40;60.20;101517.91;5137336;28;20046;-90
2022/10/24 00:59:03;;;;;;;14.30;11.75;;;;;;;21.40;60.17;101526.84;5137115;28;20510;-90
2022/10/24 01:01:32;;;;;;;12.75;10.00;;;;;;;21.39;60.22;101525.13;5137462;28;20479;-90
2022/10/24 01:04:01;;;;;;;13.18;11.05;;;;;;;21.40;60.19;101507.97;5137482;28;20382;-89
2022/10/24 01:06:58;;;;;;;12.80;11.30;;;;;;;21.40;60.22;101502.59;5136329;28;20047;-89
2022/10/24 01:10:10;;;;;;;14.50;11.27;;;;;;;21.40;60.19;101499.91;5136499;28;20407;-89
2022/10/24 01:12:52;;;;;;;12.93;11.60;;;;;;;21.40;60.22;101489.13;5033489;28;20057;-89
2022/10/24 01:15:33;;;;;;;13.10;10.55;;;;;;;21.40;60.20;101499.03;5033852;28;20064;-90
2022/10/24 01:18:23;;;;;;;12.82;10.55;;;;;;;21.40;60.21;101505.28;5033969;28;20069;-89
2022/10/24 01:21:03;;;;;;;12.40;10.73;;;;;;;21.39;60.31;101508.97;5033312;28;20064;-89
2022/10/24 01:23:33;;;;;;;12.13;10.82;;;;;;;21.40;60.27;101504.44;5017250;28;20045;-90
2022/10/24 01:26:18;;;;;;;12.88;11.25;;;;;;;21.39;60.28;101503.59;5016985;28;20046;-89
2022/10/24 01:29:15;;;;;;;12.38;10.88;;;;;;;21.40;60.24;101499.03;5033981;28;20508;-90
2022/10/24 01:31:54;;;;;;;13.13;11.50;;;;;;;21.40;60.25;101496.34;5034656;28;20054;-90
2022/10/24 01:34:39;;;;;;;11.70;10.50;;;;;;;21.40;60.31;101490.97;5034449;28;20058;-89
2022/10/24 01:37:15;;;;;;;12.27;10.63;;;;;;;21.39;60.28;101495.50;5033987;28;20065;-90
2022/10/24 01:40:11;;;;;;;13.00;11.63;;;;;;;21.40;60.27;101489.13;5033985;28;20470;-89
2022/10/24 01:42:40;;;;;;;14.20;11.07;;;;;;;21.40;60.27;101486.44;5019737;28;20422;-89
2022/10/24 01:45:12;;;;;;;12.77;10.90;;;;;;;21.39;60.28;101495.50;5037541;28;20049;-90
2022/10/24 01:47:46;;;;;;;12.17;10.67;;;;;;;21.39;60.23;101486.53;5037475;28;20054;-89
2022/10/24 01:50:18;;;;;;;15.63;11.68;;;;;;;21.41;60.29;101485.44;5130005;27;20074;-90
2022/10/24 01:52:46;;;;;;;13.95;11.68;;;;;;;21.39;60.30;101482.03;5140015;27;20043;-90
2022/10/24 01:55:14;;;;;;;14.07;12.57;;;;;;;21.39;60.36;101476.66;5140551;27;20043;-90
2022/10/24 01:57:41;;;;;;;14.52;11.50;;;;;;;21.41;60.31;101473.81;5140221;27;20487;-90
2022/10/24 02:00:16;;;;;;;13.65;10.82;;;;;;;21.40;60.32;101466.72;5121945;27;20059;-89
2022/10/24 02:02:54;;;;;;;13.02;11.07;;;;;;;21.40;60.33;101472.13;5122754;27;20475;-90
2022/10/24 02:05:28;;;;;;;12.93;10.68;;;;;;;21.39;60.29;101473.94;5121730;27;20062;-89
2022/10/24 02:08:01;;;;;;;10.82;9.70;;;;;;;21.40;60.35;101481.03;5140388;27;20055;-90
2022/10/24 02:10:34;;;;;;;12.40;10.70;;;;;;;21.40;60.35;101472.13;5121786;27;20039;-90
2022/10/24 02:13:07;;;;;;;15.23;11.45;;;;;;;21.40;60.36;101458.66;5121760;27;20050;-90
2022/10/24 02:15:45;;;;;;;12.40;11.05;;;;;;;21.40;60.31;101458.66;5140267;27;20050;-89
2022/10/24 02:18:13;;;;;;;12.02;10.43;;;;;;;21.40;60.28;101458.66;5121480;27;20047;-90
2022/10/24 02:21:15;;;;;;;14.55;11.13;;;;;;;21.39;60.32;101454.22;5120584;27;20418;-90
2022/10/24 02:23:55;;;;;;;14.10;11.75;;;;;;;21.40;60.35;101455.94;5036172;28;20524;-90
2022/10/24 02:26:32;;;;;;;15.13;11.77;;;;;;;21.39;60.33;101449.72;5036511;28;20061;-89
2022/10/24 02:29:10;;;;;;;13.43;10.98;;;;;;;21.40;60.31;101450.56;5036845;28;20061;-89
2022/10/24 02:31:43;;;;;;;14.88;11.70;;;;;;;21.40;60.43;101439.78;5035995;28;20056;-89
2022/10/24 02:34:12;;;;;;;15.07;11.50;;;;;;;21.39;60.36;101440.75;5036427;28;20065;-90
2022/10/24 02:36:41;;;;;;;12.23;10.93;;;;;;;21.39;60.47;101432.66;5019703;28;20049;-90
2022/10/24 02:39:11;;;;;;;12.00;10.05;;;;;;;21.39;60.39;101424.59;5018940;28;20128;-90
2022/10/24 02:41:40;;;;;;;12.18;10.90;;;;;;;21.38;60.39;101430.97;5003124;28;20045;-90
2022/10/24 02:44:11;;;;;;;13.63;11.30;;;;;;;21.39;60.34;101438.06;5035908;28;20052;-90
2022/10/24 02:46:40;;;;;;;15.85;11.38;;;;;;;21.39;60.30;101438.06;5035948;28;20605;-90
2022/10/24 02:49:08;;;;;;;14.82;11.82;;;;;;;21.38;60.40;101442.59;5019819;28;20054;-90
2022/10/24 02:51:39;;;;;;;12.18;10.93;;;;;;;21.39;60.38;101443.44;5035973;28;20057;-90
2022/10/24 02:54:06;;;;;;;13.18;10.95;;;;;;;21.39;60.39;101436.25;5035404;28;20064;-90
2022/10/24 02:56:36;;;;;;;13.85;11.13;;;;;;;21.40;60.39;101437.09;5036178;28;20054;-91
2022/10/24 02:59:03;;;;;;;12.05;10.73;;;;;;;21.38;60.40;101426.44;5036172;28;20068;-90
2022/10/24 03:01:30;;;;;;;13.05;10.70;;;;;;;21.39;60.31;101412.00;5129785;27;20055;-90
2022/10/24 03:03:58;;;;;;;12.10;10.80;;;;;;;21.38;60.42;101423.75;5120469;27;20042;-89
2022/10/24 03:06:25;;;;;;;11.73;10.48;;;;;;;21.38;60.48;101415.66;5121126;27;20047;-89
2022/10/24 03:08:52;;;;;;;15.23;11.82;;;;;;;21.38;60.38;101412.97;5138478;27;20051;-90
2022/10/24 03:11:20;;;;;;;13.20;11.20;;;;;;;21.38;60.35;101409.41;5138787;27;20042;-89
2022/10/24 03:13:47;;;;;;;14.98;11.30;;;;;;;21.36;60.41;101409.56;5138534;27;20050;-89
2022/10/24 03:16:14;;;;;;;13.80;11.63;;;;;;;21.37;60.33;101413.09;5138571;27;20043;-90
2022/10/24 03:18:42;;;;;;;11.88;10.20;;;;;;;21.38;60.42;101407.56;5138342;27;20054;-90
2022/10/24 03:21:09;;;;;;;13.20;10.52;;;;;;;21.38;60.35;101394.09;5138957;27;20050;-91
2022/10/24 03:23:36;;;;;;;12.95;11.50;;;;;;;21.38;60.44;101399.50;5138447;27;20046;-90
2022/10/24 03:26:04;;;;;;;14.38;11.27;;;;;;;21.38;60.49;101399.50;5138353;27;20520;-90
2022/10/24 03:28:31;;;;;;;11.93;10.30;;;;;;;21.38;60.38;101401.34;5102668;27;20050;-90
2022/10/24 03:30:59;;;;;;;12.02;10.32;;;;;;;21.38;60.45;101410.28;5138096;27;20047;-89
2022/10/24 03:33:26;;;;;;;11.80;10.52;;;;;;;21.38;60.42;101420.19;5138639;27;20039;-89
2022/10/24 03:35:54;;;;;;;14.05;10.70;;;;;;;21.38;60.45;101412.13;5138067;27;20380;-90
2022/10/24 03:38:22;;;;;;;12.82;10.18;;;;;;;21.38;60.46;101409.41;5138788;27;20058;-90
2022/10/24 03:40:50;;;;;;;14.05;10.90;;;;;;;21.39;60.57;101413.81;5120528;27;20394;-90
2022/10/24 03:43:18;;;;;;;12.55;10.75;;;;;;;21.38;60.50;101414.81;5120541;27;20035;-90
2022/10/24 03:45:45;;;;;;;13.57;10.65;;;;;;;21.38;60.50;101412.13;5137971;27;20053;-90
2022/10/24 03:48:13;;;;;;;13.20;10.40;;;;;;;21.37;60.50;101415.81;5138606;27;20459;-89
2022/10/24 03:50:40;;;;;;;12.18;10.73;;;;;;;21.38;60.49;101406.72;5138164;27;20066;-89
2022/10/24 03:53:08;;;;;;;11.13;9.98;;;;;;;21.38;60.45;101420.19;5119842;27;20047;-90
2022/10/24 03:55:35;;;;;;;12.32;10.38;;;;;;;21.37;60.51;101418.50;5137552;27;20043;-90
2022/10/24 03:58:02;;;;;;;11.48;10.25;;;;;;;21.37;60.47;101422.03;5118640;27;20525;-90
2022/10/24 04:00:33;;;;;;;11.88;10.27;;;;;;;21.39;60.57;101424.59;5137689;27;20035;-90
2022/10/24 04:03:00;;;;;;;11.57;9.98;;;;;;;21.37;60.46;101426.56;5138922;27;20043;-90
2022/10/24 04:05:28;;;;;;;14.55;10.90;;;;;;;21.38;60.52;101418.34;5119668;27;20047;-90
2022/10/24 04:07:55;;;;;;;12.13;10.82;;;;;;;21.38;60.67;101436.34;5114934;28;20050;-90
2022/10/24 04:10:22;;;;;;;12.77;10.90;;;;;;;21.37;60.47;101437.34;5098452;28;20530;-90
2022/10/24 04:12:50;;;;;;;11.65;10.32;;;;;;;21.38;60.51;101437.22;5117087;28;20046;-90
2022/10/24 04:15:17;;;;;;;11.02;9.75;;;;;;;21.36;60.54;101433.81;5117403;28;20055;-89
2022/10/24 04:17:44;;;;;;;12.07;10.65;;;;;;;21.37;60.54;101443.59;5117136;28;20051;-90
2022/10/24 04:20:12;;;;;;;14.40;11.18;;;;;;;21.37;60.57;101440.03;5117199;28;20044;-89
2022/10/24 04:22:39;;;;;;;11.77;10.25;;;;;;;21.37;60.60;101434.66;5117066;28;20043;-89
2022/10/24 04:25:07;;;;;;;11.63;10.48;;;;;;;21.39;60.57;101448.84;5116853;28;20047;-89
2022/10/24 04:27:39;;;;;;;12.15;10.38;;;;;;;21.37;60.57;101445.44;5117059;28;20058;-90
2022/10/24 04:30:08;;;;;;;10.85;9.10;;;;;;;21.37;60.57;101446.28;5117369;28;20055;-89
2022/10/24 04:32:43;;;;;;;11.07;9.90;;;;;;;21.37;60.54;101448.13;5117418;28;20055;-89
2022/10/24 04:35:12;;;;;;;14.27;10.88;;;;;;;21.36;60.47;101441.03;5116191;28;20038;-90
2022/10/24 04:37:40;;;;;;;11.60;10.07;;;;;;;21.37;60.54;101442.72;5117075;28;20051;-90
2022/10/24 04:40:07;;;;;;;11.80;9.95;;;;;;;21.37;60.54;101434.66;5116506;28;20043;-89
2022/10/24 04:42:35;;;;;;;11.23;10.13;;;;;;;21.36;60.53;101432.94;5114598;28;20062;-90
2022/10/24 04:45:03;;;;;;;11.15;10.05;;;;;;;21.37;60.54;101440.03;5116129;28;20043;-89
2022/10/24 04:47:30;;;;;;;11.48;10.27;;;;;;;21.37;60.57;101434.66;5116624;28;20046;-90
2022/10/24 04:49:57;;;;;;;11.32;10.23;;;;;;;21.38;60.58;101441.75;5116540;28;20039;-90
2022/10/24 04:52:25;;;;;;;10.15;9.05;;;;;;;21.37;60.58;101434.66;5116622;28;20050;-89
2022/10/24 04:54:52;;;;;;;11.40;10.20;;;;;;;21.36;60.59;101424.88;5115152;28;20036;-88
2022/10/24 04:57:19;;;;;;;10.55;9.32;;;;;;;21.37;60.64;101426.56;5116973;28;20048;-89
2022/10/24 04:59:46;;;;;;;11.20;10.00;;;;;;;;;;5115620;28;20044;-90
2022/10/24 05:02:13;;;;;;;10.82;9.73;;;;;;;21.37;60.62;101431.97;5116033;28;20402;-90
2022/10/24 05:04:41;;;;;;;10.63;9.50;;;;;;;21.36;60.57;101430.25;5117114;28;20036;-90
2022/10/24 05:07:08;;;;;;;10.48;9.05;;;;;;;21.36;60.67;101425.72;5117219;28;20052;-90
2022/10/24 05:09:35;;;;;;;10.57;9.50;;;;;;;21.36;60.57;101420.34;5137442;28;20047;-90
2022/10/24 05:12:03;;;;;;;10.38;9.27;;;;;;;;;;5118336;28;20428;-90
2022/10/24 05:14:31;;;;;;;11.00;9.90;;;;;;;21.36;60.58;101422.19;5118631;28;20050;-90
2022/10/24 05:16:58;;;;;;;10.80;9.50;;;;;;;21.36;60.65;101414.94;5139645;27;20054;-90
2022/10/24 05:19:25;;;;;;;9.85;8.82;;;;;;;21.36;60.73;101422.19;5141376;27;20398;-90
2022/10/24 05:21:53;;;;;;;10.77;9.68;;;;;;;21.37;60.63;101429.28;5123133;27;20398;-90
2022/10/24 05:24:20;;;;;;;11.13;9.93;;;;;;;;;;5141549;27;20039;-90
2022/10/24 05:26:47;;;;;;;10.52;9.43;;;;;;;21.37;60.60;101429.28;5122964;27;20082;-90
2022/10/24 05:29:14;;;;;;;10.95;8.73;;;;;;;;;;5142320;27;20054;-90
2022/10/24 05:31:41;;;;;;;12.18;9.23;;;;;;;21.36;60.59;101416.78;5141195;27;20054;-91
2022/10/24 05:34:09;;;;;;;10.68;9.48;;;;;;;21.36;60.61;101432.94;5140788;27;20043;-90
2022/10/24 05:36:36;;;;;;;10.43;9.32;;;;;;;21.34;60.66;101421.44;5140923;27;20051;-90
2022/10/24 05:39:03;;;;;;;11.40;9.82;;;;;;;21.33;60.59;101423.28;5140899;27;20074;-90
2022/10/24 05:41:31;;;;;;;9.43;8.48;;;;;;;21.33;60.72;101427.81;5140488;27;20043;-90
2022/10/24 05:43:58;;;;;;;10.63;9.32;;;;;;;21.36;60.57;101441.03;5138822;27;20036;-90
2022/10/24 05:46:26;;;;;;;10.38;9.15;;;;;;;;;;5140076;27;20057;-89
2022/10/24 05:48:53;;;;;;;10.05;8.98;;;;;;;;;;5139325;27;20502;-91
2022/10/24 05:51:20;;;;;;;10.68;9.35;;;;;;;21.34;60.64;101424.13;5139768;27;20047;-90
2022/10/24 05:53:47;;;;;;;10.55;9.43;;;;;;;21.34;60.57;101432.22;5120895;27;20039;-90
2022/10/24 05:56:14;;;;;;;8.82;7.90;;;;;;;21.36;60.63;101435.66;5139862;27;20043;-89
2022/10/24 05:58:42;;;;;;;11.32;9.43;;;;;;;;;;5121548;27;20070;-89
2022/10/24 06:01:09;;;;;;;9.00;8.02;;;;;;;;;;5139872;27;20043;-89
2022/10/24 06:03:36;;;;;;;9.90;8.90;;;;;;;21.33;60.67;101425.13;5139878;27;20066;-90
2022/10/24 06:06:06;;;;;;;10.52;8.95;;;;;;;;;;5122046;27;20386;-90
2022/10/24 06:08:34;;;;;;;9.77;8.80;;;;;;;21.35;60.68;101423.13;5140160;27;20451;-91
2022/10/24 06:11:02;;;;;;;9.15;8.25;;;;;;;21.34;60.61;101426.81;5104572;27;20050;-90
2022/10/24 06:13:30;;;;;;;9.95;8.68;;;;;;;;;;5140666;27;20047;-90
2022/10/24 06:16:05;;;;;;;10.27;9.00;;;;;;;21.35;60.55;101415.06;5139906;27;20498;-90
2022/10/24 06:18:32;;;;;;;10.07;8.93;;;;;;;;;;5140446;27;20047;-91
2022/10/24 06:21:01;;;;;;;9.25;7.85;;;;;;;21.33;60.76;101417.91;5122095;27;20046;-90
2022/10/24 06:23:28;;;;;;;10.10;8.82;;;;;;;21.33;60.66;101411.66;5139549;27;20039;-90
2022/10/24 06:25:55;;;;;;;10.13;9.00;;;;;;;21.36;60.69;101417.66;5140007;27;20050;-90
2022/10/24 06:28:23;;;;;;;9.60;8.57;;;;;;;21.33;60.69;101409.81;5119686;27;20120;-90
2022/10/24 06:30:53;;;;;;;8.52;7.72;;;;;;;21.36;60.71;101427.56;5140094;27;20042;-90
2022/10/24 06:33:20;;;;;;;9.32;8.43;;;;;;;21.35;60.79;101420.44;5138944;27;20065;-89
2022/10/24 06:35:48;;;;;;;8.82;8.00;;;;;;;21.34;60.79;101429.53;5140118;27;20043;-90
2022/10/24 06:38:15;;;;;;;9.10;8.13;;;;;;;21.34;60.75;101429.53;5139626;27;20054;-90
2022/10/24 06:40:42;;;;;;;9.15;8.10;;;;;;;21.34;60.75;101424.13;5138878;27;20505;-90
2022/10/24 06:43:09;;;;;;;9.63;8.05;;;;;;;21.35;60.80;101428.53;5139275;27;20375;-91
2022/10/24 06:45:37;;;;;;;9.07;8.18;;;;;;;21.34;60.70;101424.13;5120723;27;20051;-90
2022/10/24 06:48:05;;;;;;;8.63;7.82;;;;;;;21.33;60.76;101430.50;5120447;27;20054;-90
2022/10/24 06:50:32;;;;;;;9.23;8.30;;;;;;;21.33;60.82;101428.66;5139722;27;20051;-90
2022/10/24 06:52:59;;;;;;;9.27;8.38;;;;;;;21.33;60.70;101428.66;5139118;27;20047;-89
2022/10/24 06:55:26;;;;;;;8.50;7.57;;;;;;;21.34;60.77;101421.44;5138405;27;20047;-90
2022/10/24 06:57:54;;;;;;;9.02;8.13;;;;;;;21.33;60.76;101415.22;5138982;27;20054;-89
2022/10/24 07:00:21;;;;;;;8.32;7.53;;;;;;;21.35;60.70;101423.13;5119762;27;20051;-89
2022/10/24 07:02:48;;;;;;;9.25;8.15;;;;;;;21.35;60.78;101425.84;5139197;27;20035;-90
2022/10/24 07:05:16;;;;;;;8.50;7.68;;;;;;;21.33;60.83;101411.66;5103181;27;20051;-89
2022/10/24 07:07:43;;;;;;;8.38;7.45;;;;;;;21.33;60.72;101422.44;5138760;27;20058;-90
2022/10/24 07:10:13;;;;;;;8.70;7.68;;;;;;;21.33;60.71;101433.22;5120374;27;20055;-90
2022/10/24 07:12:41;;;;;;;8.15;7.35;;;;;;;21.33;60.66;101423.28;5138978;27;20043;-90
2022/10/24 07:15:10;;;;;;;9.20;8.30;;;;;;;21.33;60.75;101425.97;5119242;27;20058;-90
2022/10/24 07:17:42;;;;;;;8.80;7.90;;;;;;;21.33;60.71;101427.81;5119538;27;20058;-90
2022/10/24 07:20:11;;;;;;;8.80;7.18;;;;;;;21.33;60.68;101425.97;5138510;27;20061;-90
2022/10/24 07:22:39;;;;;;;7.47;6.85;;;;;;;21.32;60.81;101426.97;5120296;27;20058;-90
2022/10/24 07:25:07;;;;;;;8.73;7.90;;;;;;;21.33;60.66;101431.38;5120999;27;20047;-90
2022/10/24 07:27:34;;;;;;;9.18;8.25;;;;;;;21.32;60.79;101426.97;5103585;27;20047;-90
2022/10/24 07:30:04;;;;;;;8.70;7.90;;;;;;;21.33;60.80;101427.81;5139029;27;20051;-91
2022/10/24 07:32:33;;;;;;;8.68;7.78;;;;;;;21.33;60.77;101425.13;5139191;27;20047;-91
2022/10/24 07:35:00;;;;;;;8.23;7.43;;;;;;;21.32;60.82;101426.09;5138188;27;20046;-91
2022/10/24 07:37:27;;;;;;;8.80;8.00;;;;;;;21.33;60.73;101427.81;5138151;27;20051;-90
2022/10/24 07:39:55;;;;;;;8.23;7.32;;;;;;;21.33;60.81;101435.91;5118779;27;20054;-91
2022/10/24 07:42:22;;;;;;;8.23;7.43;;;;;;;21.32;60.84;101432.34;5120467;27;20051;-91
2022/10/24 07:44:49;;;;;;;7.82;7.05;;;;;;;21.32;60.79;101439.56;5121360;27;20046;-91
2022/10/24 07:47:17;;;;;;;8.43;7.63;;;;;;;21.33;60.82;101449.38;5139502;27;20035;-91
2022/10/24 07:49:44;;;;;;;8.85;7.90;;;;;;;21.32;60.74;101453.03;5138304;27;20043;-91
2022/10/24 07:52:11;;;;;;;7.93;7.00;;;;;;;21.32;60.78;101453.03;5137684;27;20051;-90
2022/10/24 07:54:39;;;;;;;8.32;7.43;;;;;;;21.34;60.75;101464.53;5102548;27;20483;-90
2022/10/24 07:57:06;;;;;;;7.80;7.05;;;;;;;21.33;60.70;101465.53;5118955;27;20498;-90
2022/10/24 07:59:33;;;;;;;9.20;7.72;;;;;;;21.32;60.77;101459.28;5119426;27;20051;-90
2022/10/24 08:02:13;;;;;;;8.50;7.63;;;;;;;21.32;60.75;101458.41;5138517;27;20065;-90
2022/10/24 08:04:40;;;;;;;7.93;6.43;;;;;;;21.32;60.91;101447.63;5119408;27;20047;-89
2022/10/24 08:07:12;;;;;;;8.07;7.28;;;;;;;21.31;60.73;101446.78;5137478;27;20054;-89
2022/10/24 08:09:42;;;;;;;7.60;6.80;;;;;;;21.31;60.76;101449.47;5118655;27;20415;-90
2022/10/24 08:12:10;;;;;;;8.18;7.47;;;;;;;21.33;60.75;101449.38;5118465;27;20406;-91
2022/10/24 08:14:39;;;;;;;7.72;7.03;;;;;;;21.31;60.76;101456.66;5138002;27;20047;-90
2022/10/24 08:17:07;;;;;;;8.10;7.38;;;;;;;21.33;60.72;101447.53;5137962;27;20478;-90
2022/10/24 08:19:35;;;;;;;8.52;7.72;;;;;;;21.32;60.79;101450.31;5137156;27;20505;-89
2022/10/24 08:22:02;;;;;;;8.20;7.35;;;;;;;21.32;60.72;101453.91;5118934;27;20418;-89
2022/10/24 08:24:30;;;;;;;7.97;7.15;;;;;;;21.31;60.85;101456.66;5118943;28;20054;-90
2022/10/24 08:26:58;;;;;;;7.32;6.53;;;;;;;21.31;60.72;101448.59;5119954;27;20047;-90
2022/10/24 08:29:25;;;;;;;8.27;7.50;;;;;;;21.34;60.77;101459.16;5119376;27;20070;-90
2022/10/24 08:31:54;;;;;;;7.50;6.80;;;;;;;21.33;60.76;101452.06;5146162;27;20047;-90
2022/10/24 08:34:22;;;;;;;7.82;6.90;;;;;;;21.31;60.76;101446.78;5156973;27;20047;-90
2022/10/24 08:36:50;;;;;;;7.88;6.95;;;;;;;21.31;60.81;101446.78;5153487;27;20043;-90
2022/10/24 08:39:17;;;;;;;8.23;7.43;;;;;;;21.31;60.81;101440.50;5142592;27;20050;-89
2022/10/24 08:41:50;;;;;;;8.02;7.22;;;;;;;21.31;60.84;101437.81;5137271;27;20039;-90
2022/10/24 08:44:40;;;;;;;7.25;6.55;;;;;;;21.32;60.74;101431.47;5137995;27;20051;-90
2022/10/24 08:47:31;;;;;;;8.90;7.53;;;;;;;21.31;60.81;101445.91;5118449;28;20096;-91
2022/10/24 08:50:22;;;;;;;7.88;7.13;;;;;;;21.30;60.83;101439.66;5118397;27;20047;-90
2022/10/24 08:53:04;;;;;;;8.00;7.20;;;;;;;21.31;60.75;101440.50;5137363;28;20055;-89
2022/10/24 08:55:42;;;;;;;7.68;6.65;;;;;;;21.31;60.75;101437.81;5117739;28;20043;-90
2022/10/24 08:58:27;;;;;;;8.05;7.32;;;;;;;21.31;60.75;101436.00;5137153;28;20039;-89
2022/10/24 09:00:58;;;;;;;7.95;7.15;;;;;;;21.31;60.74;101438.69;5137475;28;20054;-90
2022/10/24 09:03:34;;;;;;;8.85;7.93;;;;;;;21.31;60.73;101440.50;5136732;28;20058;-92
2022/10/24 09:06:27;;;;;;;7.78;7.07;;;;;;;21.31;60.79;101432.44;5138161;28;20039;-90
2022/10/24 09:09:04;;;;;;;7.68;6.97;;;;;;;21.30;60.81;101422.66;5136722;28;20051;-90
2022/10/24 09:12:19;;;;;;;7.95;7.10;;;;;;;21.31;60.85;101427.03;5137157;28;20050;-91
2022/10/24 09:14:54;;;;;;;7.97;7.18;;;;;;;21.31;60.71;101427.03;5133938;28;20059;-90
2022/10/24 09:17:35;;;;;;;7.65;6.95;;;;;;;21.31;60.75;101429.75;5137997;28;20407;-91
2022/10/24 09:20:29;;;;;;;8.23;7.38;;;;;;;21.30;60.82;101428.88;5138084;28;20051;-91
2022/10/24 09:23:03;;;;;;;7.75;6.93;;;;;;;21.30;60.91;101426.19;5117982;28;20047;-91
2022/10/24 09:25:34;;;;;;;8.20;7.45;;;;;;;21.29;60.74;101427.19;5137328;28;20100;-91
2022/10/24 09:28:03;;;;;;;7.95;7.25;;;;;;;21.29;60.78;101432.56;5118285;28;20399;-91
2022/10/24 09:30:32;;;;;;;7.93;6.93;;;;;;;21.30;60.79;101445.06;5136849;28;20043;-91
2022/10/24 09:33:12;;;;;;;8.52;7.60;;;;;;;21.30;60.71;101436.97;5119270;28;20047;-90
2022/10/24 09:35:41;;;;;;;8.10;7.30;;;;;;;21.30;60.80;101439.66;5119383;28;20050;-89
2022/10/24 09:38:32;;;;;;;8.38;7.55;;;;;;;21.30;60.82;101431.59;5136944;28;20394;-89
2022/10/24 09:41:07;;;;;;;8.00;7.20;;;;;;;21.29;60.81;101424.50;5137353;28;20066;-90
2022/10/24 09:43:54;;;;;;;8.10;7.25;;;;;;;21.29;60.84;101420.97;5137903;28;20043;-89
2022/10/24 09:46:28;;;;;;;8.32;7.50;;;;;;;21.30;60.86;101425.34;5137375;28;20050;-91
2022/10/24 09:49:03;;;;;;;8.23;7.43;;;;;;;21.30;60.91;101433.44;5118828;28;20059;-89
2022/10/24 09:51:39;;;;;;;7.97;6.93;;;;;;;21.30;60.65;101428.03;5137015;28;20105;-91
2022/10/24 09:54:20;;;;;;;7.75;7.05;;;;;;;21.30;60.77;101430.72;5136927;28;20044;-91
2022/10/24 09:56:54;;;;;;;7.43;6.72;;;;;;;21.29;60.82;101427.19;5136078;28;20036;-91
2022/10/24 09:59:41;;;;;;;8.50;7.70;;;;;;;21.30;60.85;101426.19;5118067;28;20058;-90
2022/10/24 10:02:18;;;;;;;8.63;7.38;;;;;;;21.29;60.85;101418.25;5137668;27;20051;-89
2022/10/24 10:04:48;;;;;;;8.13;7.32;;;;;;;21.29;60.85;101412.88;5140364;27;20046;-90
2022/10/24 10:07:19;;;;;;;8.07;7.18;;;;;;;21.30;60.89;101411.88;5122512;27;20043;-89
2022/10/24 10:09:53;;;;;;;9.35;8.48;;;;;;;21.29;60.77;101400.25;5122823;27;20055;-89
2022/10/24 10:12:34;;;;;;;9.15;7.78;;;;;;;21.29;60.83;101389.50;5122871;27;20524;-89
2022/10/24 10:15:23;;;;;;;9.43;8.40;;;;;;;21.28;60.87;101385.09;5120601;27;20047;-90
2022/10/24 10:17:54;;;;;;;11.05;7.97;;;;;;;21.28;60.85;101405.78;5140838;27;20051;-90
2022/10/24 10:20:30;;;;;;;8.95;8.05;;;;;;;21.28;60.82;101403.94;5140725;27;20058;-89
2022/10/24 10:23:23;;;;;;;8.68;7.85;;;;;;;21.28;60.86;101400.41;5140757;27;20059;-88
2022/10/24 10:26:21;;;;;;;8.87;7.97;;;;;;;21.28;60.86;101398.56;5142252;27;20367;-88
2022/10/24 10:28:57;;;;;;;9.23;8.35;;;;;;;21.29;60.90;101410.19;5070523;28;20143;-88
2022/10/24 10:31:39;;;;;;;8.93;8.02;;;;;;;21.28;60.90;101400.41;5072467;28;20156;-88
2022/10/24 10:34:36;;;;;;;7.97;7.18;;;;;;;21.30;60.87;101403.81;5060927;28;20456;-88
2022/10/24 10:37:04;;;;;;;8.77;7.90;;;;;;;21.29;60.84;101394.88;5036891;28;20045;-93
2022/10/24 10:39:53;;;;;;;8.80;7.90;;;;;;;21.28;60.90;101397.72;5056888;28;20057;-92
2022/10/24 10:42:33;;;;;;;9.77;8.82;;;;;;;21.28;60.90;101398.56;5056653;28;20119;-91
2022/10/24 10:45:34;;;;;;;9.27;8.32;;;;;;;21.29;60.84;101399.41;5023078;28;20057;-93
2022/10/24 10:48:17;;;;;;;8.75;7.93;;;;;;;21.28;60.92;101389.63;5022799;28;20049;-92
2022/10/24 10:51:04;;;;;;;8.93;8.13;;;;;;;21.28;60.84;101386.94;5039326;28;20074;-93
2022/10/24 10:54:06;;;;;;;9.35;8.23;;;;;;;21.28;60.89;101393.19;5024878;28;20056;-92
2022/10/24 10:56:52;;;;;;;11.20;8.32;;;;;;;21.27;60.88;101379.81;5022986;28;20056;-92
2022/10/24 10:59:29;;;;;;;8.80;7.97;;;;;;;21.29;60.89;101383.25;5039284;28;20090;-95
2022/10/24 11:02:10;;;;;;;8.48;7.57;;;;;;;21.28;60.85;101373.47;5040775;28;20448;-94
2022/10/24 11:04:43;;;;;;;9.50;8.25;;;;;;;21.28;60.94;101362.69;5057165;28;20053;-94
2022/10/24 11:07:17;;;;;;;;;;;;;;;21.28;60.89;101376.16;5136158;27;20051;-94
2022/10/24 11:09:46;;;;;;;9.27;8.38;;;;;;;21.27;60.91;101374.44;5121403;27;20278;-92
2022/10/24 11:12:24;;;;;;;8.93;8.00;;;;;;;21.28;60.81;101362.69;5121302;27;20050;-92
2022/10/24 11:15:20;;;;;;;9.25;8.32;;;;;;;21.28;60.85;101360.00;5102759;27;20058;-92
2022/10/24 11:18:05;;;;;;;9.48;8.57;;;;;;;21.27;61.06;101347.50;5103778;27;20043;-94
2022/10/24 11:20:52;;;;;;;9.32;8.43;;;;;;;21.27;60.90;101356.47;5103517;27;20065;-94
2022/10/24 11:23:28;;;;;;;9.27;8.38;;;;;;;21.28;60.89;101360.00;5140790;27;20058;-92
2022/10/24 11:26:02;;;;;;;9.55;8.65;;;;;;;21.28;60.87;101360.00;5126198;27;20051;-94
2022/10/24 11:28:52;;;;;;;9.77;8.80;;;;;;;21.26;60.95;101343.97;5104462;27;20065;-94
2022/10/24 11:31:36;;;;;;;12.20;8.77;;;;;;;21.27;60.95;101342.13;5120483;27;20055;-93
2022/10/24 11:34:31;;;;;;;10.25;8.95;;;;;;;21.27;61.06;101342.13;5120068;27;20419;-93
2022/10/24 11:36:58;;;;;;;9.35;8.48;;;;;;;21.27;60.92;101331.34;5120072;27;20410;-93
2022/10/24 11:39:35;;;;;;;9.43;8.52;;;;;;;21.27;61.00;101342.13;5119437;27;20051;-93
2022/10/24 11:42:17;;;;;;;10.57;9.48;;;;;;;21.27;60.96;101328.66;5119727;27;20047;-93
2022/10/24 11:44:57;;;;;;;9.43;8.57;;;;;;;21.28;60.90;101333.94;5083295;28;20051;-93
2022/10/24 11:47:24;;;;;;;9.23;8.35;;;;;;;21.28;60.90;101338.47;5099944;28;20499;-93
2022/10/24 11:50:04;;;;;;;10.02;8.90;;;;;;;21.28;60.81;101325.00;5082278;28;20491;-92